PWSweather.com
Personal Weather Stations
Station Observations
EA5BZ
Nuevo Altabix, ElcheES

Nuevo AltabixElcheES

Lat: 38.276, Lon: -0.671

Elevation: 0

Station Type: Davis Vantage Pro 2

http://meteoelche.es

High Low Average
Temperature 60.2°F15.7°C 46.5°F8.1°C 52.9°F11.6°C
Dew Point 47.5°F8.6°C 39.8°F4.3°C 43.4°F6.3°C
Winds 10.7 mph 17.2 kmh Calm Calm 7.0 mph SW11.3 kmh SW
Wind Gusts 14.8 mph23.8 kmh -- 10.0 mph16.1 kmh
Humidity 83% 54% 71%
Pressure 30.43 in1030.5 mb 30.35 in1027.8 mb -
Precipitation 0.00 in0.0 mm - -
Hour Temp Dew Point Humidity Winds Wind Gusts Pressure Precip Precip Rate Daily Precip Total
12:00 AM 51.6°F10.9°C 45.0°F7.2°C 78% 5.4 mph NW8.7 kmh NW 6.5 mph10.5 kmh 30.39 in1029.1 mb 0.00 in0.0 mm 0.00 in0.0 mm 0.00 in0.0 mm
12:05 AM 51.6°F10.9°C 45.0°F7.2°C 78% 5.4 mph NW8.7 kmh NW 7.4 mph11.9 kmh 30.39 in1029.1 mb 0.00 in0.0 mm 0.00 in0.0 mm 0.00 in0.0 mm
12:10 AM 51.6°F10.9°C 45.0°F7.2°C 78% 5.4 mph NW8.7 kmh NW 7.6 mph12.2 kmh 30.40 in1029.5 mb 0.00 in0.0 mm 0.00 in0.0 mm 0.00 in0.0 mm
12:15 AM 51.6°F10.9°C 44.9°F7.2°C 78% 5.6 mph NW9.0 kmh NW 7.6 mph12.2 kmh 30.40 in1029.5 mb 0.00 in0.0 mm 0.00 in0.0 mm 0.00 in0.0 mm
12:20 AM 51.6°F10.9°C 44.9°F7.2°C 78% 6.5 mph NW10.5 kmh NW 6.9 mph11.1 kmh 30.40 in1029.5 mb 0.00 in0.0 mm 0.00 in0.0 mm 0.00 in0.0 mm
12:25 AM 51.6°F10.9°C 44.6°F7.0°C 77% 6.2 mph NW10.0 kmh NW 6.9 mph11.1 kmh 30.40 in1029.5 mb 0.00 in0.0 mm 0.00 in0.0 mm 0.00 in0.0 mm
12:30 AM 51.5°F10.8°C 44.6°F7.0°C 77% 5.4 mph NW8.7 kmh NW 6.3 mph10.1 kmh 30.40 in1029.5 mb 0.00 in0.0 mm 0.00 in0.0 mm 0.00 in0.0 mm
12:35 AM 51.4°F10.8°C 44.5°F6.9°C 77% 5.3 mph NW8.5 kmh NW 5.8 mph9.3 kmh 30.40 in1029.5 mb 0.00 in0.0 mm 0.00 in0.0 mm 0.00 in0.0 mm
12:40 AM 51.3°F10.7°C 44.3°F6.8°C 77% 5.1 mph NW8.2 kmh NW 6.5 mph10.5 kmh 30.40 in1029.5 mb 0.00 in0.0 mm 0.00 in0.0 mm 0.00 in0.0 mm
12:45 AM 51.2°F10.7°C 44.2°F6.8°C 77% 5.1 mph WNW8.2 kmh WNW 5.8 mph9.3 kmh 30.40 in1029.5 mb 0.00 in0.0 mm 0.00 in0.0 mm 0.00 in0.0 mm
12:50 AM 51.1°F10.6°C 44.3°F6.8°C 77% 5.1 mph WNW8.2 kmh WNW 6.3 mph10.1 kmh 30.40 in1029.5 mb 0.00 in0.0 mm 0.00 in0.0 mm 0.00 in0.0 mm
12:55 AM 50.9°F10.5°C 44.3°F6.8°C 78% 5.1 mph WNW8.2 kmh WNW 6.3 mph10.1 kmh 30.40 in1029.5 mb 0.00 in0.0 mm 0.00 in0.0 mm 0.00 in0.0 mm
01:00 AM 50.8°F10.4°C 44.1°F6.7°C 78% 5.1 mph WNW8.2 kmh WNW 7.4 mph11.9 kmh 30.40 in1029.5 mb 0.00 in0.0 mm 0.00 in0.0 mm 0.00 in0.0 mm
01:05 AM 50.7°F10.4°C 44.1°F6.7°C 78% 5.0 mph WNW8.0 kmh WNW 7.4 mph11.9 kmh 30.40 in1029.5 mb 0.00 in0.0 mm 0.00 in0.0 mm 0.00 in0.0 mm
01:10 AM 50.7°F10.4°C 44.1°F6.7°C 78% 4.7 mph WNW7.6 kmh WNW 5.8 mph9.3 kmh 30.40 in1029.5 mb 0.00 in0.0 mm 0.00 in0.0 mm 0.00 in0.0 mm
01:15 AM 50.6°F10.3°C 44.0°F6.7°C 78% 4.6 mph WNW7.4 kmh WNW 5.4 mph8.7 kmh 30.40 in1029.5 mb 0.00 in0.0 mm 0.00 in0.0 mm 0.00 in0.0 mm
01:20 AM 50.5°F10.3°C 43.9°F6.6°C 78% 4.3 mph WNW6.9 kmh WNW 5.8 mph9.3 kmh 30.40 in1029.5 mb 0.00 in0.0 mm 0.00 in0.0 mm 0.00 in0.0 mm
01:25 AM 50.4°F10.2°C 44.1°F6.7°C 79% 4.3 mph WNW6.9 kmh WNW 6.5 mph10.5 kmh 30.40 in1029.5 mb 0.00 in0.0 mm 0.00 in0.0 mm 0.00 in0.0 mm
01:30 AM 50.3°F10.2°C 44.0°F6.7°C 79% 4.7 mph W7.6 kmh W 6.9 mph11.1 kmh 30.39 in1029.1 mb 0.00 in0.0 mm 0.00 in0.0 mm 0.00 in0.0 mm
01:35 AM 50.1°F10.1°C 43.9°F6.6°C 79% 4.9 mph W7.9 kmh W 10.1 mph16.3 kmh 30.39 in1029.1 mb 0.00 in0.0 mm 0.00 in0.0 mm 0.00 in0.0 mm
01:40 AM 49.8°F9.9°C 43.6°F6.4°C 79% 5.8 mph W9.3 kmh W 9.6 mph15.4 kmh 30.39 in1029.1 mb 0.00 in0.0 mm 0.00 in0.0 mm 0.00 in0.0 mm
01:45 AM 49.7°F9.8°C 43.6°F6.4°C 80% 6.2 mph W10.0 kmh W 8.7 mph14.0 kmh 30.39 in1029.1 mb 0.00 in0.0 mm 0.00 in0.0 mm 0.00 in0.0 mm
01:50 AM 49.5°F9.7°C 43.6°F6.4°C 80% 7.4 mph W11.9 kmh W 8.7 mph14.0 kmh 30.39 in1029.1 mb 0.00 in0.0 mm 0.00 in0.0 mm 0.00 in0.0 mm
01:55 AM 49.3°F9.6°C 43.3°F6.3°C 80% 7.3 mph W11.7 kmh W 10.1 mph16.3 kmh 30.39 in1029.1 mb 0.00 in0.0 mm 0.00 in0.0 mm 0.00 in0.0 mm
02:00 AM 49.0°F9.4°C 43.4°F6.3°C 81% 6.9 mph WSW11.1 kmh WSW 9.2 mph14.8 kmh 30.39 in1029.1 mb 0.00 in0.0 mm 0.00 in0.0 mm 0.00 in0.0 mm
02:05 AM 48.9°F9.4°C 43.3°F6.3°C 81% 7.0 mph W11.3 kmh W 9.6 mph15.4 kmh 30.39 in1029.1 mb 0.00 in0.0 mm 0.00 in0.0 mm 0.00 in0.0 mm
02:10 AM 48.8°F9.3°C 43.3°F6.3°C 81% 7.4 mph W11.9 kmh W 10.1 mph16.3 kmh 30.39 in1029.1 mb 0.00 in0.0 mm 0.00 in0.0 mm 0.00 in0.0 mm
02:15 AM 48.7°F9.3°C 43.5°F6.4°C 82% 7.4 mph W11.9 kmh W 9.6 mph15.4 kmh 30.39 in1029.1 mb 0.00 in0.0 mm 0.00 in0.0 mm 0.00 in0.0 mm
02:20 AM 48.8°F9.3°C 43.6°F6.4°C 82% 7.6 mph W12.2 kmh W 8.5 mph13.7 kmh 30.39 in1029.1 mb 0.00 in0.0 mm 0.00 in0.0 mm 0.00 in0.0 mm
02:25 AM 48.9°F9.4°C 43.7°F6.5°C 82% 7.3 mph W11.7 kmh W 8.5 mph13.7 kmh 30.40 in1029.5 mb 0.00 in0.0 mm 0.00 in0.0 mm 0.00 in0.0 mm
02:30 AM 48.9°F9.4°C 43.9°F6.6°C 83% 6.3 mph W10.1 kmh W 7.4 mph11.9 kmh 30.40 in1029.5 mb 0.00 in0.0 mm 0.00 in0.0 mm 0.00 in0.0 mm
02:35 AM 48.9°F9.4°C 43.7°F6.5°C 82% 6.1 mph W9.8 kmh W 7.4 mph11.9 kmh 30.40 in1029.5 mb 0.00 in0.0 mm 0.00 in0.0 mm 0.00 in0.0 mm
02:40 AM 48.9°F9.4°C 43.7°F6.5°C 82% 5.4 mph W8.7 kmh W 7.6 mph12.2 kmh 30.40 in1029.5 mb 0.00 in0.0 mm 0.00 in0.0 mm 0.00 in0.0 mm
02:45 AM 48.8°F9.3°C 43.5°F6.4°C 82% 5.6 mph W9.0 kmh W 8.5 mph13.7 kmh 30.40 in1029.5 mb 0.00 in0.0 mm 0.00 in0.0 mm 0.00 in0.0 mm
02:50 AM 48.7°F9.3°C 43.5°F6.4°C 82% 6.3 mph W10.1 kmh W 8.7 mph14.0 kmh 30.40 in1029.5 mb 0.00 in0.0 mm 0.00 in0.0 mm 0.00 in0.0 mm
02:55 AM 48.7°F9.3°C 43.5°F6.4°C 82% 6.3 mph W10.1 kmh W 8.7 mph14.0 kmh 30.41 in1029.8 mb 0.00 in0.0 mm 0.00 in0.0 mm 0.00 in0.0 mm
03:00 AM 48.7°F9.3°C 43.5°F6.4°C 82% 6.5 mph WSW10.5 kmh WSW 8.1 mph13.0 kmh 30.41 in1029.8 mb 0.00 in0.0 mm 0.00 in0.0 mm 0.00 in0.0 mm
03:05 AM 48.7°F9.3°C 43.5°F6.4°C 82% 6.5 mph WSW10.5 kmh WSW 8.7 mph14.0 kmh 30.41 in1029.8 mb 0.00 in0.0 mm 0.00 in0.0 mm 0.00 in0.0 mm
03:10 AM 48.6°F9.2°C 43.2°F6.2°C 82% 6.5 mph WSW10.5 kmh WSW 8.7 mph14.0 kmh 30.41 in1029.8 mb 0.00 in0.0 mm 0.00 in0.0 mm 0.00 in0.0 mm
03:15 AM 48.6°F9.2°C 43.0°F6.1°C 81% 6.6 mph WSW10.6 kmh WSW 9.2 mph14.8 kmh 30.41 in1029.8 mb 0.00 in0.0 mm 0.00 in0.0 mm 0.00 in0.0 mm
03:20 AM 48.6°F9.2°C 43.0°F6.1°C 81% 6.9 mph WSW11.1 kmh WSW 10.1 mph16.3 kmh 30.41 in1029.8 mb 0.00 in0.0 mm 0.00 in0.0 mm 0.00 in0.0 mm
03:25 AM 48.6°F9.2°C 43.0°F6.1°C 81% 7.0 mph WSW11.3 kmh WSW 10.3 mph16.6 kmh 30.41 in1029.8 mb 0.00 in0.0 mm 0.00 in0.0 mm 0.00 in0.0 mm
03:30 AM 48.5°F9.2°C 42.9°F6.1°C 81% 7.4 mph WSW11.9 kmh WSW 8.7 mph14.0 kmh 30.41 in1029.8 mb 0.00 in0.0 mm 0.00 in0.0 mm 0.00 in0.0 mm
03:35 AM 48.4°F9.1°C 42.8°F6.0°C 81% 7.4 mph WSW11.9 kmh WSW 9.2 mph14.8 kmh 30.41 in1029.8 mb 0.00 in0.0 mm 0.00 in0.0 mm 0.00 in0.0 mm
03:40 AM 48.4°F9.1°C 42.8°F6.0°C 81% 7.4 mph W11.9 kmh W 8.7 mph14.0 kmh 30.41 in1029.8 mb 0.00 in0.0 mm 0.00 in0.0 mm 0.00 in0.0 mm
03:45 AM 48.4°F9.1°C 42.8°F6.0°C 81% 7.4 mph W11.9 kmh W 10.1 mph16.3 kmh 30.41 in1029.8 mb 0.00 in0.0 mm 0.00 in0.0 mm 0.00 in0.0 mm
03:50 AM 48.2°F9.0°C 42.7°F5.9°C 81% 7.4 mph WSW11.9 kmh WSW 10.1 mph16.3 kmh 30.41 in1029.8 mb 0.00 in0.0 mm 0.00 in0.0 mm 0.00 in0.0 mm
03:55 AM 48.2°F9.0°C 42.7°F5.9°C 81% 7.5 mph WSW12.1 kmh WSW 10.7 mph17.2 kmh 30.41 in1029.8 mb 0.00 in0.0 mm 0.00 in0.0 mm 0.00 in0.0 mm
04:00 AM 48.2°F9.0°C 42.6°F5.9°C 81% 8.1 mph W13.0 kmh W 10.3 mph16.6 kmh 30.40 in1029.5 mb 0.00 in0.0 mm 0.00 in0.0 mm 0.00 in0.0 mm
04:05 AM 48.2°F9.0°C 42.4°F5.8°C 80% 8.2 mph W13.2 kmh W 11.2 mph18.0 kmh 30.40 in1029.5 mb 0.00 in0.0 mm 0.00 in0.0 mm 0.00 in0.0 mm
04:10 AM 48.1°F8.9°C 42.2°F5.7°C 80% 8.5 mph W13.7 kmh W 10.3 mph16.6 kmh 30.40 in1029.5 mb 0.00 in0.0 mm 0.00 in0.0 mm 0.00 in0.0 mm
04:15 AM 48.0°F8.9°C 42.1°F5.6°C 80% 8.4 mph W13.5 kmh W 10.1 mph16.3 kmh 30.40 in1029.5 mb 0.00 in0.0 mm 0.00 in0.0 mm 0.00 in0.0 mm
04:20 AM 48.0°F8.9°C 42.5°F5.8°C 81% 8.1 mph W13.0 kmh W 10.3 mph16.6 kmh 30.40 in1029.5 mb 0.00 in0.0 mm 0.00 in0.0 mm 0.00 in0.0 mm
04:25 AM 48.0°F8.9°C 42.4°F5.8°C 81% 8.0 mph W12.9 kmh W 9.6 mph15.4 kmh 30.40 in1029.5 mb 0.00 in0.0 mm 0.00 in0.0 mm 0.00 in0.0 mm
04:30 AM 48.0°F8.9°C 42.2°F5.7°C 80% 7.6 mph W12.2 kmh W 10.1 mph16.3 kmh 30.39 in1029.1 mb 0.00 in0.0 mm 0.00 in0.0 mm 0.00 in0.0 mm
04:35 AM 48.2°F9.0°C 42.3°F5.7°C 80% 7.6 mph W12.2 kmh W 8.7 mph14.0 kmh 30.39 in1029.1 mb 0.00 in0.0 mm 0.00 in0.0 mm 0.00 in0.0 mm
04:40 AM 48.2°F9.0°C 42.3°F5.7°C 80% 7.4 mph W11.9 kmh W 10.3 mph16.6 kmh 30.39 in1029.1 mb 0.00 in0.0 mm 0.00 in0.0 mm 0.00 in0.0 mm
04:45 AM 48.3°F9.1°C 42.4°F5.8°C 80% 7.4 mph W11.9 kmh W 10.1 mph16.3 kmh 30.39 in1029.1 mb 0.00 in0.0 mm 0.00 in0.0 mm 0.00 in0.0 mm
04:50 AM 48.4°F9.1°C 42.4°F5.8°C 80% 7.4 mph WSW11.9 kmh WSW 11.2 mph18.0 kmh 30.39 in1029.1 mb 0.00 in0.0 mm 0.00 in0.0 mm 0.00 in0.0 mm
04:55 AM 48.4°F9.1°C 42.2°F5.7°C 79% 7.4 mph WSW11.9 kmh WSW 9.2 mph14.8 kmh 30.38 in1028.8 mb 0.00 in0.0 mm 0.00 in0.0 mm 0.00 in0.0 mm
05:00 AM 48.4°F9.1°C 42.2°F5.7°C 79% 7.6 mph WSW12.2 kmh WSW 10.3 mph16.6 kmh 30.38 in1028.8 mb 0.00 in0.0 mm 0.00 in0.0 mm 0.00 in0.0 mm
05:05 AM 48.4°F9.1°C 41.9°F5.5°C 78% 7.9 mph WSW12.7 kmh WSW 12.3 mph19.8 kmh 30.38 in1028.8 mb 0.00 in0.0 mm 0.00 in0.0 mm 0.00 in0.0 mm
05:10 AM 48.4°F9.1°C 41.8°F5.4°C 78% 8.7 mph WSW14.0 kmh WSW 13.4 mph21.6 kmh 30.38 in1028.8 mb 0.00 in0.0 mm 0.00 in0.0 mm 0.00 in0.0 mm
05:15 AM 48.4°F9.1°C 41.8°F5.4°C 78% 9.0 mph WSW14.5 kmh WSW 12.5 mph20.1 kmh 30.38 in1028.8 mb 0.00 in0.0 mm 0.00 in0.0 mm 0.00 in0.0 mm
05:20 AM 48.3°F9.1°C 41.7°F5.4°C 78% 10.1 mph W16.3 kmh W 10.7 mph17.2 kmh 30.38 in1028.8 mb 0.00 in0.0 mm 0.00 in0.0 mm 0.00 in0.0 mm
05:25 AM 48.0°F8.9°C 41.5°F5.3°C 78% 9.8 mph WSW15.8 kmh WSW 13.0 mph20.9 kmh 30.37 in1028.4 mb 0.00 in0.0 mm 0.00 in0.0 mm 0.00 in0.0 mm
05:30 AM 47.9°F8.8°C 41.4°F5.2°C 78% 8.7 mph WSW14.0 kmh WSW 11.4 mph18.3 kmh 30.37 in1028.4 mb 0.00 in0.0 mm 0.00 in0.0 mm 0.00 in0.0 mm
05:35 AM 47.8°F8.8°C 41.3°F5.2°C 78% 8.6 mph WSW13.8 kmh WSW 10.7 mph17.2 kmh 30.37 in1028.4 mb 0.00 in0.0 mm 0.00 in0.0 mm 0.00 in0.0 mm
05:40 AM 47.7°F8.7°C 41.1°F5.1°C 78% 8.1 mph WSW13.0 kmh WSW 10.7 mph17.2 kmh 30.37 in1028.4 mb 0.00 in0.0 mm 0.00 in0.0 mm 0.00 in0.0 mm
05:45 AM 47.7°F8.7°C 41.1°F5.1°C 78% 8.1 mph WSW13.0 kmh WSW 12.5 mph20.1 kmh 30.37 in1028.4 mb 0.00 in0.0 mm 0.00 in0.0 mm 0.00 in0.0 mm
05:50 AM 47.7°F8.7°C 41.1°F5.1°C 78% 8.1 mph W13.0 kmh W 10.7 mph17.2 kmh 30.37 in1028.4 mb 0.00 in0.0 mm 0.00 in0.0 mm 0.00 in0.0 mm
05:55 AM 47.7°F8.7°C 41.1°F5.1°C 78% 7.8 mph WSW12.6 kmh WSW 11.2 mph18.0 kmh 30.37 in1028.4 mb 0.00 in0.0 mm 0.00 in0.0 mm 0.00 in0.0 mm
06:00 AM 47.7°F8.7°C 41.2°F5.1°C 78% 6.9 mph WSW11.1 kmh WSW 10.3 mph16.6 kmh 30.37 in1028.4 mb 0.00 in0.0 mm 0.00 in0.0 mm 0.00 in0.0 mm
06:05 AM 47.8°F8.8°C 41.3°F5.2°C 78% 7.0 mph WSW11.3 kmh WSW 12.3 mph19.8 kmh 30.37 in1028.4 mb 0.00 in0.0 mm 0.00 in0.0 mm 0.00 in0.0 mm
06:10 AM 47.8°F8.8°C 41.0°F5.0°C 77% 7.4 mph WSW11.9 kmh WSW 10.1 mph16.3 kmh 30.37 in1028.4 mb 0.00 in0.0 mm 0.00 in0.0 mm 0.00 in0.0 mm
06:15 AM 47.8°F8.8°C 41.0°F5.0°C 77% 7.3 mph WSW11.7 kmh WSW 10.3 mph16.6 kmh 30.37 in1028.4 mb 0.00 in0.0 mm 0.00 in0.0 mm 0.00 in0.0 mm
06:20 AM 47.8°F8.8°C 41.0°F5.0°C 77% 6.9 mph WSW11.1 kmh WSW 8.7 mph14.0 kmh 30.37 in1028.4 mb 0.00 in0.0 mm 0.00 in0.0 mm 0.00 in0.0 mm
06:25 AM 47.7°F8.7°C 40.8°F4.9°C 77% 6.8 mph WSW10.9 kmh WSW 9.6 mph15.4 kmh 30.38 in1028.8 mb 0.00 in0.0 mm 0.00 in0.0 mm 0.00 in0.0 mm
06:30 AM 47.7°F8.7°C 40.8°F4.9°C 77% 6.5 mph WSW10.5 kmh WSW 9.6 mph15.4 kmh 30.38 in1028.8 mb 0.00 in0.0 mm 0.00 in0.0 mm 0.00 in0.0 mm
06:35 AM 47.5°F8.6°C 40.7°F4.8°C 77% 6.7 mph WSW10.8 kmh WSW 9.6 mph15.4 kmh 30.38 in1028.8 mb 0.00 in0.0 mm 0.00 in0.0 mm 0.00 in0.0 mm
06:40 AM 47.5°F8.6°C 40.6°F4.8°C 77% 7.6 mph WSW12.2 kmh WSW 9.6 mph15.4 kmh 30.38 in1028.8 mb 0.00 in0.0 mm 0.00 in0.0 mm 0.00 in0.0 mm
06:45 AM 47.3°F8.5°C 40.5°F4.7°C 77% 7.6 mph WSW12.2 kmh WSW 9.2 mph14.8 kmh 30.38 in1028.8 mb 0.00 in0.0 mm 0.00 in0.0 mm 0.00 in0.0 mm
06:50 AM 47.3°F8.5°C 40.5°F4.7°C 77% 7.6 mph WSW12.2 kmh WSW 9.6 mph15.4 kmh 30.38 in1028.8 mb 0.00 in0.0 mm 0.00 in0.0 mm 0.00 in0.0 mm
06:55 AM 47.3°F8.5°C 40.5°F4.7°C 77% 7.6 mph WSW12.2 kmh WSW 10.3 mph16.6 kmh 30.38 in1028.8 mb 0.00 in0.0 mm 0.00 in0.0 mm 0.00 in0.0 mm
07:00 AM 47.2°F8.4°C 40.4°F4.7°C 77% 7.6 mph WSW12.2 kmh WSW 9.6 mph15.4 kmh 30.38 in1028.8 mb 0.00 in0.0 mm 0.00 in0.0 mm 0.00 in0.0 mm
07:05 AM 47.1°F8.4°C 40.3°F4.6°C 77% 7.6 mph WSW12.2 kmh WSW 9.6 mph15.4 kmh 30.38 in1028.8 mb 0.00 in0.0 mm 0.00 in0.0 mm 0.00 in0.0 mm
07:10 AM 46.9°F8.3°C 40.4°F4.7°C 78% 7.4 mph WSW11.9 kmh WSW 10.3 mph16.6 kmh 30.39 in1029.1 mb 0.00 in0.0 mm 0.00 in0.0 mm 0.00 in0.0 mm
07:15 AM 46.8°F8.2°C 40.3°F4.6°C 78% 7.5 mph WSW12.1 kmh WSW 11.9 mph19.2 kmh 30.39 in1029.1 mb 0.00 in0.0 mm 0.00 in0.0 mm 0.00 in0.0 mm
07:20 AM 46.8°F8.2°C 40.3°F4.6°C 78% 8.1 mph W13.0 kmh W 11.4 mph18.3 kmh 30.39 in1029.1 mb 0.00 in0.0 mm 0.00 in0.0 mm 0.00 in0.0 mm
07:25 AM 46.8°F8.2°C 40.3°F4.6°C 78% 8.3 mph W13.4 kmh W 11.9 mph19.2 kmh 30.39 in1029.1 mb 0.00 in0.0 mm 0.00 in0.0 mm 0.00 in0.0 mm
07:30 AM 46.8°F8.2°C 40.3°F4.6°C 78% 9.2 mph WSW14.8 kmh WSW 12.3 mph19.8 kmh 30.39 in1029.1 mb 0.00 in0.0 mm 0.00 in0.0 mm 0.00 in0.0 mm
07:35 AM 46.7°F8.2°C 40.2°F4.6°C 78% 9.2 mph WSW14.8 kmh WSW 12.5 mph20.1 kmh 30.39 in1029.1 mb 0.00 in0.0 mm 0.00 in0.0 mm 0.00 in0.0 mm
07:40 AM 46.6°F8.1°C 40.1°F4.5°C 78% 9.2 mph WSW14.8 kmh WSW 12.3 mph19.8 kmh 30.39 in1029.1 mb 0.00 in0.0 mm 0.00 in0.0 mm 0.00 in0.0 mm
07:45 AM 46.6°F8.1°C 40.1°F4.5°C 78% 9.2 mph WSW14.8 kmh WSW 12.5 mph20.1 kmh 30.39 in1029.1 mb 0.00 in0.0 mm 0.00 in0.0 mm 0.00 in0.0 mm
07:50 AM 46.5°F8.1°C 40.0°F4.4°C 78% 9.2 mph W14.8 kmh W 10.7 mph17.2 kmh 30.39 in1029.1 mb 0.00 in0.0 mm 0.00 in0.0 mm 0.00 in0.0 mm
07:55 AM 46.5°F8.1°C 40.0°F4.4°C 78% 9.0 mph W14.5 kmh W 11.9 mph19.2 kmh 30.40 in1029.5 mb 0.00 in0.0 mm 0.00 in0.0 mm 0.00 in0.0 mm
08:00 AM 46.5°F8.1°C 40.0°F4.4°C 78% 8.5 mph WSW13.7 kmh WSW 12.3 mph19.8 kmh 30.40 in1029.5 mb 0.00 in0.0 mm 0.00 in0.0 mm 0.00 in0.0 mm
08:05 AM 46.5°F8.1°C 40.0°F4.4°C 78% 8.6 mph WSW13.8 kmh WSW 11.4 mph18.3 kmh 30.40 in1029.5 mb 0.00 in0.0 mm 0.00 in0.0 mm 0.00 in0.0 mm
08:10 AM 46.5°F8.1°C 40.0°F4.4°C 78% 9.2 mph WSW14.8 kmh WSW 13.6 mph21.9 kmh 30.40 in1029.5 mb 0.00 in0.0 mm 0.00 in0.0 mm 0.00 in0.0 mm
08:15 AM 46.6°F8.1°C 40.1°F4.5°C 78% 9.4 mph W15.1 kmh W 12.5 mph20.1 kmh 30.40 in1029.5 mb 0.00 in0.0 mm 0.00 in0.0 mm 0.00 in0.0 mm
08:20 AM 46.6°F8.1°C 39.8°F4.3°C 77% 10.1 mph W16.3 kmh W 11.4 mph18.3 kmh 30.40 in1029.5 mb 0.00 in0.0 mm 0.00 in0.0 mm 0.00 in0.0 mm
08:25 AM 46.8°F8.2°C 39.9°F4.4°C 77% 9.9 mph W15.9 kmh W 11.2 mph18.0 kmh 30.40 in1029.5 mb 0.00 in0.0 mm 0.00 in0.0 mm 0.00 in0.0 mm
08:30 AM 46.8°F8.2°C 39.9°F4.4°C 77% 9.2 mph W14.8 kmh W 11.4 mph18.3 kmh 30.40 in1029.5 mb 0.00 in0.0 mm 0.00 in0.0 mm 0.00 in0.0 mm
08:35 AM 46.8°F8.2°C 40.0°F4.4°C 77% 9.1 mph W14.6 kmh W 11.4 mph18.3 kmh 30.40 in1029.5 mb 0.00 in0.0 mm 0.00 in0.0 mm 0.00 in0.0 mm
08:40 AM 46.9°F8.3°C 40.1°F4.5°C 77% 8.7 mph W14.0 kmh W 12.5 mph20.1 kmh 30.41 in1029.8 mb 0.00 in0.0 mm 0.00 in0.0 mm 0.00 in0.0 mm
08:45 AM 47.1°F8.4°C 40.2°F4.6°C 77% 8.7 mph W14.0 kmh W 11.9 mph19.2 kmh 30.41 in1029.8 mb 0.00 in0.0 mm 0.00 in0.0 mm 0.00 in0.0 mm
08:50 AM 47.4°F8.6°C 40.6°F4.8°C 77% 8.5 mph W13.7 kmh W 14.1 mph22.7 kmh 30.41 in1029.8 mb 0.00 in0.0 mm 0.00 in0.0 mm 0.00 in0.0 mm
08:55 AM 47.8°F8.8°C 40.7°F4.8°C 76% 8.6 mph W13.8 kmh W 11.4 mph18.3 kmh 30.41 in1029.8 mb 0.00 in0.0 mm 0.00 in0.0 mm 0.00 in0.0 mm
09:00 AM 48.2°F9.0°C 40.9°F4.9°C 76% 9.2 mph W14.8 kmh W 12.3 mph19.8 kmh 30.41 in1029.8 mb 0.00 in0.0 mm 0.00 in0.0 mm 0.00 in0.0 mm
09:05 AM 48.6°F9.2°C 41.1°F5.1°C 75% 9.0 mph W14.5 kmh W 10.7 mph17.2 kmh 30.41 in1029.8 mb 0.00 in0.0 mm 0.00 in0.0 mm 0.00 in0.0 mm
09:10 AM 49.1°F9.5°C 41.2°F5.1°C 74% 8.5 mph W13.7 kmh W 11.2 mph18.0 kmh 30.41 in1029.8 mb 0.00 in0.0 mm 0.00 in0.0 mm 0.00 in0.0 mm
09:15 AM 49.4°F9.7°C 41.3°F5.2°C 73% 8.4 mph W13.5 kmh W 11.2 mph18.0 kmh 30.41 in1029.8 mb 0.00 in0.0 mm 0.00 in0.0 mm 0.00 in0.0 mm
09:20 AM 49.8°F9.9°C 41.5°F5.3°C 73% 8.1 mph W13.0 kmh W 11.2 mph18.0 kmh 30.41 in1029.8 mb 0.00 in0.0 mm 0.00 in0.0 mm 0.00 in0.0 mm
09:25 AM 50.3°F10.2°C 41.7°F5.4°C 72% 8.1 mph W13.0 kmh W 11.2 mph18.0 kmh 30.42 in1030.1 mb 0.00 in0.0 mm 0.00 in0.0 mm 0.00 in0.0 mm
09:30 AM 50.7°F10.4°C 41.8°F5.4°C 71% 8.1 mph W13.0 kmh W 11.2 mph18.0 kmh 30.42 in1030.1 mb 0.00 in0.0 mm 0.00 in0.0 mm 0.00 in0.0 mm
09:35 AM 51.2°F10.7°C 41.8°F5.4°C 70% 8.2 mph W13.2 kmh W 11.4 mph18.3 kmh 30.42 in1030.1 mb 0.00 in0.0 mm 0.00 in0.0 mm 0.00 in0.0 mm
09:40 AM 51.5°F10.8°C 42.0°F5.6°C 70% 8.7 mph W14.0 kmh W 11.2 mph18.0 kmh 30.42 in1030.1 mb 0.00 in0.0 mm 0.00 in0.0 mm 0.00 in0.0 mm
09:45 AM 51.7°F10.9°C 41.9°F5.5°C 69% 8.7 mph W14.0 kmh W 11.2 mph18.0 kmh 30.43 in1030.5 mb 0.00 in0.0 mm 0.00 in0.0 mm 0.00 in0.0 mm
09:50 AM 52.0°F11.1°C 41.8°F5.4°C 68% 8.5 mph WSW13.7 kmh WSW 10.7 mph17.2 kmh 30.43 in1030.5 mb 0.00 in0.0 mm 0.00 in0.0 mm 0.00 in0.0 mm
09:55 AM 52.3°F11.3°C 41.9°F5.5°C 68% 8.4 mph WSW13.5 kmh WSW 11.4 mph18.3 kmh 30.42 in1030.1 mb 0.00 in0.0 mm 0.00 in0.0 mm 0.00 in0.0 mm
10:00 AM 52.5°F11.4°C 41.9°F5.5°C 67% 8.1 mph WSW13.0 kmh WSW 11.9 mph19.2 kmh 30.42 in1030.1 mb 0.00 in0.0 mm 0.00 in0.0 mm 0.00 in0.0 mm
10:05 AM 52.9°F11.6°C 42.1°F5.6°C 67% 8.2 mph W13.2 kmh W 10.7 mph17.2 kmh 30.42 in1030.1 mb 0.00 in0.0 mm 0.00 in0.0 mm 0.00 in0.0 mm
10:10 AM 53.2°F11.8°C 42.1°F5.6°C 66% 8.5 mph W13.7 kmh W 11.2 mph18.0 kmh 30.42 in1030.1 mb 0.00 in0.0 mm 0.00 in0.0 mm 0.00 in0.0 mm
10:15 AM 53.6°F12.0°C 42.3°F5.7°C 66% 8.4 mph W13.5 kmh W 10.3 mph16.6 kmh 30.43 in1030.5 mb 0.00 in0.0 mm 0.00 in0.0 mm 0.00 in0.0 mm
10:20 AM 54.0°F12.2°C 42.4°F5.8°C 65% 8.1 mph WSW13.0 kmh WSW 8.7 mph14.0 kmh 30.43 in1030.5 mb 0.00 in0.0 mm 0.00 in0.0 mm 0.00 in0.0 mm
10:25 AM 54.3°F12.4°C 42.2°F5.7°C 64% 7.7 mph WSW12.4 kmh WSW 10.3 mph16.6 kmh 30.43 in1030.5 mb 0.00 in0.0 mm 0.00 in0.0 mm 0.00 in0.0 mm
10:30 AM 54.5°F12.5°C 42.2°F5.7°C 63% 6.3 mph WSW10.1 kmh WSW 11.4 mph18.3 kmh 30.43 in1030.5 mb 0.00 in0.0 mm 0.00 in0.0 mm 0.00 in0.0 mm
10:35 AM 54.9°F12.7°C 42.5°F5.8°C 63% 6.6 mph WSW10.6 kmh WSW 11.2 mph18.0 kmh 30.43 in1030.5 mb 0.00 in0.0 mm 0.00 in0.0 mm 0.00 in0.0 mm
10:40 AM 55.1°F12.8°C 42.3°F5.7°C 62% 7.6 mph WSW12.2 kmh WSW 10.7 mph17.2 kmh 30.43 in1030.5 mb 0.00 in0.0 mm 0.00 in0.0 mm 0.00 in0.0 mm
10:45 AM 55.2°F12.9°C 42.4°F5.8°C 62% 7.6 mph WSW12.2 kmh WSW 11.4 mph18.3 kmh 30.43 in1030.5 mb 0.00 in0.0 mm 0.00 in0.0 mm 0.00 in0.0 mm
10:50 AM 55.4°F13.0°C 42.2°F5.7°C 61% 7.6 mph WSW12.2 kmh WSW 11.4 mph18.3 kmh 30.43 in1030.5 mb 0.00 in0.0 mm 0.00 in0.0 mm 0.00 in0.0 mm
10:55 AM 55.5°F13.1°C 42.4°F5.8°C 61% 7.7 mph WSW12.4 kmh WSW 11.2 mph18.0 kmh 30.42 in1030.1 mb 0.00 in0.0 mm 0.00 in0.0 mm 0.00 in0.0 mm
11:00 AM 55.7°F13.2°C 42.5°F5.8°C 61% 8.1 mph WSW13.0 kmh WSW 11.2 mph18.0 kmh 30.42 in1030.1 mb 0.00 in0.0 mm 0.00 in0.0 mm 0.00 in0.0 mm
11:05 AM 56.0°F13.3°C 42.7°F5.9°C 61% 7.9 mph WSW12.7 kmh WSW 11.9 mph19.2 kmh 30.42 in1030.1 mb 0.00 in0.0 mm 0.00 in0.0 mm 0.00 in0.0 mm
11:10 AM 56.3°F13.5°C 43.0°F6.1°C 61% 7.4 mph W11.9 kmh W 10.1 mph16.3 kmh 30.42 in1030.1 mb 0.00 in0.0 mm 0.00 in0.0 mm 0.00 in0.0 mm
11:15 AM 56.7°F13.7°C 43.0°F6.1°C 60% 7.4 mph W11.9 kmh W 11.4 mph18.3 kmh 30.43 in1030.5 mb 0.00 in0.0 mm 0.00 in0.0 mm 0.00 in0.0 mm
11:20 AM 57.0°F13.9°C 43.3°F6.3°C 60% 7.6 mph W12.2 kmh W 10.3 mph16.6 kmh 30.43 in1030.5 mb 0.00 in0.0 mm 0.00 in0.0 mm 0.00 in0.0 mm
11:25 AM 57.5°F14.2°C 43.6°F6.4°C 60% 7.2 mph W11.6 kmh W 9.2 mph14.8 kmh 30.43 in1030.5 mb 0.00 in0.0 mm 0.00 in0.0 mm 0.00 in0.0 mm
11:30 AM 57.9°F14.4°C 43.7°F6.5°C 59% 5.8 mph WSW9.3 kmh WSW 7.4 mph11.9 kmh 30.43 in1030.5 mb 0.00 in0.0 mm 0.00 in0.0 mm 0.00 in0.0 mm
11:35 AM 58.4°F14.7°C 44.0°F6.7°C 59% 5.5 mph WSW8.9 kmh WSW 8.1 mph13.0 kmh 30.43 in1030.5 mb 0.00 in0.0 mm 0.00 in0.0 mm 0.00 in0.0 mm
11:40 AM 58.7°F14.8°C 44.0°F6.7°C 58% 4.3 mph WSW6.9 kmh WSW 6.3 mph10.1 kmh 30.42 in1030.1 mb 0.00 in0.0 mm 0.00 in0.0 mm 0.00 in0.0 mm
11:45 AM 59.1°F15.1°C 44.3°F6.8°C 58% 4.2 mph WSW6.8 kmh WSW 9.6 mph15.4 kmh 30.42 in1030.1 mb 0.00 in0.0 mm 0.00 in0.0 mm 0.00 in0.0 mm
11:50 AM 59.4°F15.2°C 44.2°F6.8°C 57% 4.0 mph WSW6.4 kmh WSW 7.6 mph12.2 kmh 30.42 in1030.1 mb 0.00 in0.0 mm 0.00 in0.0 mm 0.00 in0.0 mm
11:55 AM 59.6°F15.3°C 44.0°F6.7°C 56% 4.2 mph WSW6.8 kmh WSW 8.7 mph14.0 kmh 30.41 in1029.8 mb 0.00 in0.0 mm 0.00 in0.0 mm 0.00 in0.0 mm
12:00 PM 59.7°F15.4°C 44.0°F6.7°C 56% 4.7 mph WSW7.6 kmh WSW 8.7 mph14.0 kmh 30.41 in1029.8 mb 0.00 in0.0 mm 0.00 in0.0 mm 0.00 in0.0 mm
12:05 PM 59.8°F15.4°C 43.8°F6.6°C 55% 4.5 mph WSW7.2 kmh WSW 6.5 mph10.5 kmh 30.41 in1029.8 mb 0.00 in0.0 mm 0.00 in0.0 mm 0.00 in0.0 mm
12:10 PM 60.1°F15.6°C 43.8°F6.6°C 55% 4.0 mph W6.4 kmh W 6.3 mph10.1 kmh 30.41 in1029.8 mb 0.00 in0.0 mm 0.00 in0.0 mm 0.00 in0.0 mm
12:15 PM 60.0°F15.6°C 43.4°F6.3°C 54% 3.9 mph W6.3 kmh W 10.1 mph16.3 kmh 30.41 in1029.8 mb 0.00 in0.0 mm 0.00 in0.0 mm 0.00 in0.0 mm
12:20 PM 59.2°F15.1°C 43.3°F6.3°C 56% 3.6 mph N5.8 kmh N 8.7 mph14.0 kmh 30.41 in1029.8 mb 0.00 in0.0 mm 0.00 in0.0 mm 0.00 in0.0 mm
12:25 PM 58.8°F14.9°C 43.4°F6.3°C 57% 3.7 mph N6.0 kmh N 4.7 mph7.6 kmh 30.40 in1029.5 mb 0.00 in0.0 mm 0.00 in0.0 mm 0.00 in0.0 mm
12:30 PM 58.7°F14.8°C 43.5°F6.4°C 57% 4.0 mph NE6.4 kmh NE 6.5 mph10.5 kmh 30.40 in1029.5 mb 0.00 in0.0 mm 0.00 in0.0 mm 0.00 in0.0 mm
12:35 PM 58.6°F14.8°C 43.4°F6.3°C 57% 4.0 mph NE6.4 kmh NE 8.1 mph13.0 kmh 30.40 in1029.5 mb 0.00 in0.0 mm 0.00 in0.0 mm 0.00 in0.0 mm
12:40 PM 58.5°F14.7°C 43.5°F6.4°C 57% 4.0 mph NNE6.4 kmh NNE 6.9 mph11.1 kmh 30.39 in1029.1 mb 0.00 in0.0 mm 0.00 in0.0 mm 0.00 in0.0 mm
12:45 PM 58.7°F14.8°C 43.6°F6.4°C 57% 4.2 mph NE6.8 kmh NE 6.5 mph10.5 kmh 30.39 in1029.1 mb 0.00 in0.0 mm 0.00 in0.0 mm 0.00 in0.0 mm
12:50 PM 58.8°F14.9°C 43.6°F6.4°C 57% 4.7 mph ENE7.6 kmh ENE 4.7 mph7.6 kmh 30.39 in1029.1 mb 0.00 in0.0 mm 0.00 in0.0 mm 0.00 in0.0 mm
12:55 PM 59.2°F15.1°C 43.9°F6.6°C 57% 4.1 mph ENE6.6 kmh ENE 6.5 mph10.5 kmh 30.39 in1029.1 mb 0.00 in0.0 mm 0.00 in0.0 mm 0.00 in0.0 mm
01:00 PM 59.6°F15.3°C 44.0°F6.7°C 56% 2.0 mph SE3.2 kmh SE 6.3 mph10.1 kmh 30.39 in1029.1 mb 0.00 in0.0 mm 0.00 in0.0 mm 0.00 in0.0 mm
01:05 PM 59.7°F15.4°C 44.0°F6.7°C 56% 2.5 mph ESE4.0 kmh ESE 8.7 mph14.0 kmh 30.39 in1029.1 mb 0.00 in0.0 mm 0.00 in0.0 mm 0.00 in0.0 mm
01:10 PM 59.7°F15.4°C 43.8°F6.6°C 56% 4.3 mph E6.9 kmh E 4.3 mph6.9 kmh 30.38 in1028.8 mb 0.00 in0.0 mm 0.00 in0.0 mm 0.00 in0.0 mm
01:15 PM 60.0°F15.6°C 43.7°F6.5°C 55% 3.9 mph E6.3 kmh E 5.1 mph8.2 kmh 30.38 in1028.8 mb 0.00 in0.0 mm 0.00 in0.0 mm 0.00 in0.0 mm
01:20 PM 60.1°F15.6°C 43.8°F6.6°C 55% 2.5 mph NE4.0 kmh NE 5.4 mph8.7 kmh 30.38 in1028.8 mb 0.00 in0.0 mm 0.00 in0.0 mm 0.00 in0.0 mm
01:25 PM 60.2°F15.7°C 43.8°F6.6°C 55% 2.5 mph NE4.0 kmh NE 7.6 mph12.2 kmh 30.38 in1028.8 mb 0.00 in0.0 mm 0.00 in0.0 mm 0.00 in0.0 mm
01:30 PM 60.0°F15.6°C 43.1°F6.2°C 54% 2.5 mph ENE4.0 kmh ENE 11.2 mph18.0 kmh 30.38 in1028.8 mb 0.00 in0.0 mm 0.00 in0.0 mm 0.00 in0.0 mm
01:35 PM 59.5°F15.3°C 43.3°F6.3°C 55% 3.4 mph NE5.5 kmh NE 9.6 mph15.4 kmh 30.38 in1028.8 mb 0.00 in0.0 mm 0.00 in0.0 mm 0.00 in0.0 mm
01:40 PM 59.7°F15.4°C 43.2°F6.2°C 54% 6.9 mph NE11.1 kmh NE 9.6 mph15.4 kmh 30.37 in1028.4 mb 0.00 in0.0 mm 0.00 in0.0 mm 0.00 in0.0 mm
01:45 PM 59.6°F15.3°C 43.3°F6.3°C 55% 6.7 mph NE10.8 kmh NE 12.5 mph20.1 kmh 30.37 in1028.4 mb 0.00 in0.0 mm 0.00 in0.0 mm 0.00 in0.0 mm
01:50 PM 59.6°F15.3°C 43.4°F6.3°C 55% 5.8 mph NE9.3 kmh NE 12.5 mph20.1 kmh 30.37 in1028.4 mb 0.00 in0.0 mm 0.00 in0.0 mm 0.00 in0.0 mm
01:55 PM 59.5°F15.3°C 43.3°F6.3°C 55% 6.2 mph NE10.0 kmh NE 10.7 mph17.2 kmh 30.37 in1028.4 mb 0.00 in0.0 mm 0.00 in0.0 mm 0.00 in0.0 mm
02:00 PM 59.7°F15.4°C 43.9°F6.6°C 56% 7.6 mph ENE12.2 kmh ENE 13.4 mph21.6 kmh 30.37 in1028.4 mb 0.00 in0.0 mm 0.00 in0.0 mm 0.00 in0.0 mm
02:05 PM 59.7°F15.4°C 44.1°F6.7°C 56% 7.4 mph ENE11.9 kmh ENE 11.9 mph19.2 kmh 30.37 in1028.4 mb 0.00 in0.0 mm 0.00 in0.0 mm 0.00 in0.0 mm
02:10 PM 60.0°F15.6°C 44.2°F6.8°C 56% 6.5 mph E10.5 kmh E 11.2 mph18.0 kmh 30.36 in1028.1 mb 0.00 in0.0 mm 0.00 in0.0 mm 0.00 in0.0 mm
02:15 PM 60.1°F15.6°C 43.9°F6.6°C 55% 6.5 mph E10.5 kmh E 12.3 mph19.8 kmh 30.36 in1028.1 mb 0.00 in0.0 mm 0.00 in0.0 mm 0.00 in0.0 mm
02:20 PM 59.8°F15.4°C 43.7°F6.5°C 55% 6.5 mph E10.5 kmh E 12.3 mph19.8 kmh 30.36 in1028.1 mb 0.00 in0.0 mm 0.00 in0.0 mm 0.00 in0.0 mm
02:25 PM 59.7°F15.4°C 43.9°F6.6°C 56% 6.8 mph ENE10.9 kmh ENE 14.8 mph23.8 kmh 30.36 in1028.1 mb 0.00 in0.0 mm 0.00 in0.0 mm 0.00 in0.0 mm
02:30 PM 59.6°F15.3°C 43.9°F6.6°C 56% 8.1 mph ENE13.0 kmh ENE 11.2 mph18.0 kmh 30.36 in1028.1 mb 0.00 in0.0 mm 0.00 in0.0 mm 0.00 in0.0 mm
02:35 PM 59.6°F15.3°C 43.8°F6.6°C 56% 7.9 mph ENE12.7 kmh ENE 10.1 mph16.3 kmh 30.36 in1028.1 mb 0.00 in0.0 mm 0.00 in0.0 mm 0.00 in0.0 mm
02:40 PM 59.7°F15.4°C 44.4°F6.9°C 57% 7.4 mph ENE11.9 kmh ENE 13.4 mph21.6 kmh 30.36 in1028.1 mb 0.00 in0.0 mm 0.00 in0.0 mm 0.00 in0.0 mm
02:45 PM 59.6°F15.3°C 44.3°F6.8°C 57% 7.8 mph ENE12.6 kmh ENE 13.4 mph21.6 kmh 30.35 in1027.8 mb 0.00 in0.0 mm 0.00 in0.0 mm 0.00 in0.0 mm
02:50 PM 59.5°F15.3°C 44.0°F6.7°C 57% 9.2 mph ENE14.8 kmh ENE 13.0 mph20.9 kmh 30.35 in1027.8 mb 0.00 in0.0 mm 0.00 in0.0 mm 0.00 in0.0 mm
02:55 PM 59.7°F15.4°C 44.4°F6.9°C 57% 8.8 mph ENE14.2 kmh ENE 10.3 mph16.6 kmh 30.36 in1028.1 mb 0.00 in0.0 mm 0.00 in0.0 mm 0.00 in0.0 mm
03:00 PM 59.8°F15.4°C 44.5°F6.9°C 57% 7.6 mph E12.2 kmh E 13.0 mph20.9 kmh 30.36 in1028.1 mb 0.00 in0.0 mm 0.00 in0.0 mm 0.00 in0.0 mm
03:05 PM 59.7°F15.4°C 44.3°F6.8°C 57% 7.6 mph E12.2 kmh E 11.4 mph18.3 kmh 30.36 in1028.1 mb 0.00 in0.0 mm 0.00 in0.0 mm 0.00 in0.0 mm
03:10 PM 59.6°F15.3°C 43.9°F6.6°C 56% 7.4 mph ENE11.9 kmh ENE 11.9 mph19.2 kmh 30.36 in1028.1 mb 0.00 in0.0 mm 0.00 in0.0 mm 0.00 in0.0 mm
03:15 PM 59.6°F15.3°C 43.7°F6.5°C 56% 7.6 mph ENE12.2 kmh ENE 13.0 mph20.9 kmh 30.36 in1028.1 mb 0.00 in0.0 mm 0.00 in0.0 mm 0.00 in0.0 mm
03:20 PM 59.4°F15.2°C 43.6°F6.4°C 56% 8.5 mph E13.7 kmh E 8.7 mph14.0 kmh 30.36 in1028.1 mb 0.00 in0.0 mm 0.00 in0.0 mm 0.00 in0.0 mm
03:25 PM 59.7°F15.4°C 43.8°F6.6°C 56% 8.2 mph E13.2 kmh E 13.0 mph20.9 kmh 30.36 in1028.1 mb 0.00 in0.0 mm 0.00 in0.0 mm 0.00 in0.0 mm
03:30 PM 59.6°F15.3°C 43.9°F6.6°C 56% 6.9 mph E11.1 kmh E 11.9 mph19.2 kmh 30.36 in1028.1 mb 0.00 in0.0 mm 0.00 in0.0 mm 0.00 in0.0 mm
03:35 PM 59.9°F15.5°C 44.5°F6.9°C 57% 7.0 mph E11.3 kmh E 10.7 mph17.2 kmh 30.36 in1028.1 mb 0.00 in0.0 mm 0.00 in0.0 mm 0.00 in0.0 mm
03:40 PM 60.0°F15.6°C 44.4°F6.9°C 56% 7.4 mph E11.9 kmh E 10.7 mph17.2 kmh 30.36 in1028.1 mb 0.00 in0.0 mm 0.00 in0.0 mm 0.00 in0.0 mm
03:45 PM 59.7°F15.4°C 44.4°F6.9°C 57% 7.2 mph E11.6 kmh E 13.0 mph20.9 kmh 30.36 in1028.1 mb 0.00 in0.0 mm 0.00 in0.0 mm 0.00 in0.0 mm
03:50 PM 59.5°F15.3°C 44.6°F7.0°C 58% 6.5 mph ENE10.5 kmh ENE 12.3 mph19.8 kmh 30.36 in1028.1 mb 0.00 in0.0 mm 0.00 in0.0 mm 0.00 in0.0 mm
03:55 PM 59.3°F15.2°C 44.5°F6.9°C 58% 6.8 mph ENE10.9 kmh ENE 11.9 mph19.2 kmh 30.36 in1028.1 mb 0.00 in0.0 mm 0.00 in0.0 mm 0.00 in0.0 mm
04:00 PM 59.4°F15.2°C 44.4°F6.9°C 57% 8.1 mph ENE13.0 kmh ENE 10.3 mph16.6 kmh 30.36 in1028.1 mb 0.00 in0.0 mm 0.00 in0.0 mm 0.00 in0.0 mm
04:05 PM 59.5°F15.3°C 44.3°F6.8°C 57% 7.7 mph E12.4 kmh E 11.4 mph18.3 kmh 30.36 in1028.1 mb 0.00 in0.0 mm 0.00 in0.0 mm 0.00 in0.0 mm
04:10 PM 59.4°F15.2°C 43.8°F6.6°C 56% 6.3 mph E10.1 kmh E 11.9 mph19.2 kmh 30.36 in1028.1 mb 0.00 in0.0 mm 0.00 in0.0 mm 0.00 in0.0 mm
04:15 PM 59.4°F15.2°C 43.7°F6.5°C 56% 6.5 mph E10.5 kmh E 13.4 mph21.6 kmh 30.36 in1028.1 mb 0.00 in0.0 mm 0.00 in0.0 mm 0.00 in0.0 mm
04:20 PM 59.4°F15.2°C 44.1°F6.7°C 57% 7.4 mph E11.9 kmh E 8.7 mph14.0 kmh 30.36 in1028.1 mb 0.00 in0.0 mm 0.00 in0.0 mm 0.00 in0.0 mm
04:25 PM 59.5°F15.3°C 44.3°F6.8°C 57% 7.2 mph E11.6 kmh E 11.2 mph18.0 kmh 30.36 in1028.1 mb 0.00 in0.0 mm 0.00 in0.0 mm 0.00 in0.0 mm
04:30 PM 59.3°F15.2°C 44.5°F6.9°C 58% 6.5 mph E10.5 kmh E 9.2 mph14.8 kmh 30.37 in1028.4 mb 0.00 in0.0 mm 0.00 in0.0 mm 0.00 in0.0 mm
04:35 PM 59.2°F15.1°C 44.9°F7.2°C 59% 6.6 mph E10.6 kmh E 11.4 mph18.3 kmh 30.37 in1028.4 mb 0.00 in0.0 mm 0.00 in0.0 mm 0.00 in0.0 mm
04:40 PM 59.1°F15.1°C 45.3°F7.4°C 60% 6.9 mph ENE11.1 kmh ENE 8.1 mph13.0 kmh 30.37 in1028.4 mb 0.00 in0.0 mm 0.00 in0.0 mm 0.00 in0.0 mm
04:45 PM 59.1°F15.1°C 45.3°F7.4°C 60% 6.7 mph E10.8 kmh E 9.2 mph14.8 kmh 30.37 in1028.4 mb 0.00 in0.0 mm 0.00 in0.0 mm 0.00 in0.0 mm
04:50 PM 59.1°F15.1°C 45.4°F7.4°C 61% 5.8 mph E9.3 kmh E 8.5 mph13.7 kmh 30.37 in1028.4 mb 0.00 in0.0 mm 0.00 in0.0 mm 0.00 in0.0 mm
04:55 PM 58.8°F14.9°C 45.4°F7.4°C 61% 5.9 mph E9.5 kmh E 10.1 mph16.3 kmh 30.37 in1028.4 mb 0.00 in0.0 mm 0.00 in0.0 mm 0.00 in0.0 mm
05:00 PM 58.7°F14.8°C 45.7°F7.6°C 62% 6.3 mph ENE10.1 kmh ENE 8.7 mph14.0 kmh 30.37 in1028.4 mb 0.00 in0.0 mm 0.00 in0.0 mm 0.00 in0.0 mm
05:05 PM 58.6°F14.8°C 46.0°F7.8°C 63% 6.3 mph ENE10.1 kmh ENE 7.4 mph11.9 kmh 30.37 in1028.4 mb 0.00 in0.0 mm 0.00 in0.0 mm 0.00 in0.0 mm
05:10 PM 58.5°F14.7°C 46.0°F7.8°C 63% 6.3 mph ENE10.1 kmh ENE 7.6 mph12.2 kmh 30.37 in1028.4 mb 0.00 in0.0 mm 0.00 in0.0 mm 0.00 in0.0 mm
05:15 PM 58.4°F14.7°C 46.2°F7.9°C 64% 6.2 mph ENE10.0 kmh ENE 8.1 mph13.0 kmh 30.37 in1028.4 mb 0.00 in0.0 mm 0.00 in0.0 mm 0.00 in0.0 mm
05:20 PM 58.3°F14.6°C 46.2°F7.9°C 64% 5.8 mph ENE9.3 kmh ENE 8.7 mph14.0 kmh 30.37 in1028.4 mb 0.00 in0.0 mm 0.00 in0.0 mm 0.00 in0.0 mm
05:25 PM 58.1°F14.5°C 46.3°F7.9°C 65% 5.9 mph ENE9.5 kmh ENE 8.7 mph14.0 kmh 30.37 in1028.4 mb 0.00 in0.0 mm 0.00 in0.0 mm 0.00 in0.0 mm
05:30 PM 57.9°F14.4°C 46.2°F7.9°C 65% 6.3 mph ENE10.1 kmh ENE 7.6 mph12.2 kmh 30.37 in1028.4 mb 0.00 in0.0 mm 0.00 in0.0 mm 0.00 in0.0 mm
05:35 PM 57.7°F14.3°C 46.4°F8.0°C 66% 6.1 mph ENE9.8 kmh ENE 6.5 mph10.5 kmh 30.37 in1028.4 mb 0.00 in0.0 mm 0.00 in0.0 mm 0.00 in0.0 mm
05:40 PM 57.5°F14.2°C 46.5°F8.1°C 67% 5.4 mph ENE8.7 kmh ENE 6.9 mph11.1 kmh 30.37 in1028.4 mb 0.00 in0.0 mm 0.00 in0.0 mm 0.00 in0.0 mm
05:45 PM 57.4°F14.1°C 46.5°F8.1°C 67% 5.2 mph ENE8.4 kmh ENE 5.4 mph8.7 kmh 30.37 in1028.4 mb 0.00 in0.0 mm 0.00 in0.0 mm 0.00 in0.0 mm
05:50 PM 57.2°F14.0°C 46.7°F8.2°C 68% 4.7 mph ENE7.6 kmh ENE 5.1 mph8.2 kmh 30.37 in1028.4 mb 0.00 in0.0 mm 0.00 in0.0 mm 0.00 in0.0 mm
05:55 PM 57.0°F13.9°C 46.6°F8.1°C 68% 4.5 mph ENE7.2 kmh ENE 4.7 mph7.6 kmh 30.37 in1028.4 mb 0.00 in0.0 mm 0.00 in0.0 mm 0.00 in0.0 mm
06:00 PM 57.0°F13.9°C 46.9°F8.3°C 69% 3.6 mph ENE5.8 kmh ENE 8.7 mph14.0 kmh 30.37 in1028.4 mb 0.00 in0.0 mm 0.00 in0.0 mm 0.00 in0.0 mm
06:05 PM 56.8°F13.8°C 46.8°F8.2°C 69% 3.8 mph ENE6.1 kmh ENE 8.7 mph14.0 kmh 30.37 in1028.4 mb 0.00 in0.0 mm 0.00 in0.0 mm 0.00 in0.0 mm
06:10 PM 56.8°F13.8°C 47.1°F8.4°C 70% 4.7 mph ENE7.6 kmh ENE 9.2 mph14.8 kmh 30.38 in1028.8 mb 0.00 in0.0 mm 0.00 in0.0 mm 0.00 in0.0 mm
06:15 PM 56.7°F13.7°C 47.1°F8.4°C 70% 4.8 mph ENE7.7 kmh ENE 9.2 mph14.8 kmh 30.38 in1028.8 mb 0.00 in0.0 mm 0.00 in0.0 mm 0.00 in0.0 mm
06:20 PM 56.7°F13.7°C 47.3°F8.5°C 71% 5.1 mph ENE8.2 kmh ENE 11.2 mph18.0 kmh 30.38 in1028.8 mb 0.00 in0.0 mm 0.00 in0.0 mm 0.00 in0.0 mm
06:25 PM 56.5°F13.6°C 47.2°F8.4°C 71% 5.3 mph ENE8.5 kmh ENE 10.1 mph16.3 kmh 30.38 in1028.8 mb 0.00 in0.0 mm 0.00 in0.0 mm 0.00 in0.0 mm
06:30 PM 56.4°F13.6°C 47.5°F8.6°C 72% 5.8 mph ENE9.3 kmh ENE 8.1 mph13.0 kmh 30.38 in1028.8 mb 0.00 in0.0 mm 0.00 in0.0 mm 0.00 in0.0 mm
06:35 PM 56.2°F13.4°C 47.3°F8.5°C 72% 5.2 mph ENE8.4 kmh ENE 5.8 mph9.3 kmh 30.38 in1028.8 mb 0.00 in0.0 mm 0.00 in0.0 mm 0.00 in0.0 mm
06:40 PM 56.1°F13.4°C 47.2°F8.4°C 72% 3.1 mph ENE5.0 kmh ENE 3.1 mph5.0 kmh 30.38 in1028.8 mb 0.00 in0.0 mm 0.00 in0.0 mm 0.00 in0.0 mm
06:45 PM 56.1°F13.4°C 47.2°F8.4°C 72% 2.4 mph ENE3.9 kmh ENE 4.0 mph6.4 kmh 30.38 in1028.8 mb 0.00 in0.0 mm 0.00 in0.0 mm 0.00 in0.0 mm
06:50 PM 55.9°F13.3°C 47.4°F8.6°C 73% Calm Calm -- 30.38 in1028.8 mb 0.00 in0.0 mm 0.00 in0.0 mm 0.00 in0.0 mm
06:55 PM 55.9°F13.3°C 47.4°F8.6°C 73% Calm Calm -- 30.38 in1028.8 mb 0.00 in0.0 mm 0.00 in0.0 mm 0.00 in0.0 mm
07:00 PM 55.8°F13.2°C 47.2°F8.4°C 73% Calm Calm -- 30.38 in1028.8 mb 0.00 in0.0 mm 0.00 in0.0 mm 0.00 in0.0 mm
07:05 PM 55.7°F13.2°C 47.2°F8.4°C 73% Calm Calm 5.1 mph8.2 kmh 30.38 in1028.8 mb 0.00 in0.0 mm 0.00 in0.0 mm 0.00 in0.0 mm
07:10 PM 55.6°F13.1°C 46.7°F8.2°C 72% Calm Calm 5.4 mph8.7 kmh 30.39 in1029.1 mb 0.00 in0.0 mm 0.00 in0.0 mm 0.00 in0.0 mm
07:15 PM 55.4°F13.0°C 46.5°F8.1°C 72% 0.7 mph WNW1.1 kmh WNW 5.1 mph8.2 kmh 30.39 in1029.1 mb 0.00 in0.0 mm 0.00 in0.0 mm 0.00 in0.0 mm
07:20 PM 55.2°F12.9°C 46.5°F8.1°C 72% 3.1 mph WNW5.0 kmh WNW 5.1 mph8.2 kmh 30.39 in1029.1 mb 0.00 in0.0 mm 0.00 in0.0 mm 0.00 in0.0 mm
07:25 PM 55.1°F12.8°C 46.6°F8.1°C 73% 3.1 mph WNW5.0 kmh WNW 4.7 mph7.6 kmh 30.39 in1029.1 mb 0.00 in0.0 mm 0.00 in0.0 mm 0.00 in0.0 mm
07:30 PM 55.0°F12.8°C 46.8°F8.2°C 74% 2.9 mph W4.7 kmh W 4.0 mph6.4 kmh 30.39 in1029.1 mb 0.00 in0.0 mm 0.00 in0.0 mm 0.00 in0.0 mm
07:35 PM 55.0°F12.8°C 46.9°F8.3°C 74% 2.7 mph W4.3 kmh W 5.8 mph9.3 kmh 30.39 in1029.1 mb 0.00 in0.0 mm 0.00 in0.0 mm 0.00 in0.0 mm
07:40 PM 54.9°F12.7°C 46.5°F8.1°C 73% 1.8 mph W2.9 kmh W 5.8 mph9.3 kmh 30.39 in1029.1 mb 0.00 in0.0 mm 0.00 in0.0 mm 0.00 in0.0 mm
07:45 PM 54.8°F12.7°C 46.3°F7.9°C 73% 2.3 mph WNW3.7 kmh WNW 8.1 mph13.0 kmh 30.39 in1029.1 mb 0.00 in0.0 mm 0.00 in0.0 mm 0.00 in0.0 mm
07:50 PM 54.6°F12.6°C 46.1°F7.8°C 73% 4.0 mph WNW6.4 kmh WNW 7.4 mph11.9 kmh 30.39 in1029.1 mb 0.00 in0.0 mm 0.00 in0.0 mm 0.00 in0.0 mm
07:55 PM 54.3°F12.4°C 46.1°F7.8°C 74% 4.2 mph NW6.8 kmh NW 7.6 mph12.2 kmh 30.39 in1029.1 mb 0.00 in0.0 mm 0.00 in0.0 mm 0.00 in0.0 mm
08:00 PM 54.2°F12.3°C 46.1°F7.8°C 74% 4.7 mph NW7.6 kmh NW 7.4 mph11.9 kmh 30.39 in1029.1 mb 0.00 in0.0 mm 0.00 in0.0 mm 0.00 in0.0 mm
08:05 PM 54.1°F12.3°C 46.0°F7.8°C 74% 4.7 mph NW7.6 kmh NW 7.6 mph12.2 kmh 30.39 in1029.1 mb 0.00 in0.0 mm 0.00 in0.0 mm 0.00 in0.0 mm
08:10 PM 53.9°F12.2°C 45.9°F7.7°C 74% 4.7 mph NW7.6 kmh NW 7.4 mph11.9 kmh 30.39 in1029.1 mb 0.00 in0.0 mm 0.00 in0.0 mm 0.00 in0.0 mm
08:15 PM 53.8°F12.1°C 46.0°F7.8°C 75% 4.6 mph NW7.4 kmh NW 6.9 mph11.1 kmh 30.39 in1029.1 mb 0.00 in0.0 mm 0.00 in0.0 mm 0.00 in0.0 mm
08:20 PM 53.7°F12.1°C 46.0°F7.8°C 75% 4.3 mph NW6.9 kmh NW 6.5 mph10.5 kmh 30.39 in1029.1 mb 0.00 in0.0 mm 0.00 in0.0 mm 0.00 in0.0 mm
08:25 PM 53.5°F11.9°C 45.8°F7.7°C 75% 4.0 mph NW6.4 kmh NW 6.3 mph10.1 kmh 30.40 in1029.5 mb 0.00 in0.0 mm 0.00 in0.0 mm 0.00 in0.0 mm
08:30 PM 53.4°F11.9°C 46.0°F7.8°C 76% 3.1 mph NNW5.0 kmh NNW 6.5 mph10.5 kmh 30.40 in1029.5 mb 0.00 in0.0 mm 0.00 in0.0 mm 0.00 in0.0 mm
08:35 PM 53.2°F11.8°C 45.6°F7.6°C 75% 3.2 mph NW5.1 kmh NW 6.5 mph10.5 kmh 30.40 in1029.5 mb 0.00 in0.0 mm 0.00 in0.0 mm 0.00 in0.0 mm
08:40 PM 53.0°F11.7°C 45.5°F7.5°C 76% 3.6 mph NW5.8 kmh NW 7.4 mph11.9 kmh 30.40 in1029.5 mb 0.00 in0.0 mm 0.00 in0.0 mm 0.00 in0.0 mm
08:45 PM 52.8°F11.6°C 45.4°F7.4°C 76% 3.8 mph WNW6.1 kmh WNW 6.9 mph11.1 kmh 30.40 in1029.5 mb 0.00 in0.0 mm 0.00 in0.0 mm 0.00 in0.0 mm
08:50 PM 52.5°F11.4°C 45.4°F7.4°C 77% 4.7 mph W7.6 kmh W 7.4 mph11.9 kmh 30.40 in1029.5 mb 0.00 in0.0 mm 0.00 in0.0 mm 0.00 in0.0 mm
08:55 PM 52.4°F11.3°C 45.4°F7.4°C 77% 4.6 mph W7.4 kmh W 7.6 mph12.2 kmh 30.40 in1029.5 mb 0.00 in0.0 mm 0.00 in0.0 mm 0.00 in0.0 mm
09:00 PM 52.2°F11.2°C 45.0°F7.2°C 76% 4.3 mph WNW6.9 kmh WNW 8.5 mph13.7 kmh 30.40 in1029.5 mb 0.00 in0.0 mm 0.00 in0.0 mm 0.00 in0.0 mm
09:05 PM 51.8°F11.0°C 44.8°F7.1°C 77% 4.5 mph W7.2 kmh W 9.2 mph14.8 kmh 30.40 in1029.5 mb 0.00 in0.0 mm 0.00 in0.0 mm 0.00 in0.0 mm
09:10 PM 51.6°F10.9°C 44.7°F7.1°C 77% 5.4 mph WSW8.7 kmh WSW 8.1 mph13.0 kmh 30.40 in1029.5 mb 0.00 in0.0 mm 0.00 in0.0 mm 0.00 in0.0 mm
09:15 PM 51.4°F10.8°C 44.8°F7.1°C 78% 5.3 mph W8.5 kmh W 9.2 mph14.8 kmh 30.40 in1029.5 mb 0.00 in0.0 mm 0.00 in0.0 mm 0.00 in0.0 mm
09:20 PM 51.2°F10.7°C 44.6°F7.0°C 78% 5.1 mph W8.2 kmh W 7.6 mph12.2 kmh 30.40 in1029.5 mb 0.00 in0.0 mm 0.00 in0.0 mm 0.00 in0.0 mm
09:25 PM 50.9°F10.5°C 44.5°F6.9°C 79% 5.1 mph W8.2 kmh W 8.7 mph14.0 kmh 30.41 in1029.8 mb 0.00 in0.0 mm 0.00 in0.0 mm 0.00 in0.0 mm
09:30 PM 50.7°F10.4°C 44.4°F6.9°C 79% 5.1 mph W8.2 kmh W 8.7 mph14.0 kmh 30.41 in1029.8 mb 0.00 in0.0 mm 0.00 in0.0 mm 0.00 in0.0 mm
09:35 PM 50.5°F10.3°C 44.3°F6.8°C 79% 5.2 mph W8.4 kmh W 10.7 mph17.2 kmh 30.41 in1029.8 mb 0.00 in0.0 mm 0.00 in0.0 mm 0.00 in0.0 mm
09:40 PM 50.4°F10.2°C 44.4°F6.9°C 80% 5.4 mph W8.7 kmh W 12.3 mph19.8 kmh 30.41 in1029.8 mb 0.00 in0.0 mm 0.00 in0.0 mm 0.00 in0.0 mm
09:45 PM 50.2°F10.1°C 44.3°F6.8°C 80% 5.9 mph W9.5 kmh W 13.6 mph21.9 kmh 30.41 in1029.8 mb 0.00 in0.0 mm 0.00 in0.0 mm 0.00 in0.0 mm
09:50 PM 50.2°F10.1°C 44.2°F6.8°C 80% 7.6 mph W12.2 kmh W 13.6 mph21.9 kmh 30.41 in1029.8 mb 0.00 in0.0 mm 0.00 in0.0 mm 0.00 in0.0 mm
09:55 PM 50.0°F10.0°C 44.1°F6.7°C 80% 7.7 mph W12.4 kmh W 14.5 mph23.3 kmh 30.41 in1029.8 mb 0.00 in0.0 mm 0.00 in0.0 mm 0.00 in0.0 mm
10:00 PM 49.8°F9.9°C 43.8°F6.6°C 80% 8.1 mph W13.0 kmh W 10.1 mph16.3 kmh 30.41 in1029.8 mb 0.00 in0.0 mm 0.00 in0.0 mm 0.00 in0.0 mm
10:05 PM 49.8°F9.9°C 43.6°F6.4°C 79% 8.0 mph W12.9 kmh W 10.3 mph16.6 kmh 30.41 in1029.8 mb 0.00 in0.0 mm 0.00 in0.0 mm 0.00 in0.0 mm
10:10 PM 49.8°F9.9°C 43.5°F6.4°C 79% 7.6 mph W12.2 kmh W 10.1 mph16.3 kmh 30.41 in1029.8 mb 0.00 in0.0 mm 0.00 in0.0 mm 0.00 in0.0 mm
10:15 PM 49.6°F9.8°C 43.3°F6.3°C 79% 7.6 mph W12.2 kmh W 9.2 mph14.8 kmh 30.40 in1029.5 mb 0.00 in0.0 mm 0.00 in0.0 mm 0.00 in0.0 mm
10:20 PM 49.6°F9.8°C 43.0°F6.1°C 78% 7.4 mph W11.9 kmh W 9.6 mph15.4 kmh 30.40 in1029.5 mb 0.00 in0.0 mm 0.00 in0.0 mm 0.00 in0.0 mm
10:25 PM 49.5°F9.7°C 42.9°F6.1°C 78% 7.4 mph W11.9 kmh W 9.6 mph15.4 kmh 30.41 in1029.8 mb 0.00 in0.0 mm 0.00 in0.0 mm 0.00 in0.0 mm
10:30 PM 49.4°F9.7°C 42.8°F6.0°C 78% 7.4 mph W11.9 kmh W 9.6 mph15.4 kmh 30.41 in1029.8 mb 0.00 in0.0 mm 0.00 in0.0 mm 0.00 in0.0 mm
10:35 PM 49.2°F9.6°C 42.7°F5.9°C 78% 7.4 mph W11.9 kmh W 10.1 mph16.3 kmh 30.41 in1029.8 mb 0.00 in0.0 mm 0.00 in0.0 mm 0.00 in0.0 mm
10:40 PM 49.0°F9.4°C 42.3°F5.7°C 78% 7.6 mph W12.2 kmh W 13.4 mph21.6 kmh 30.40 in1029.5 mb 0.00 in0.0 mm 0.00 in0.0 mm 0.00 in0.0 mm
10:45 PM 48.9°F9.4°C 42.3°F5.7°C 78% 8.1 mph WSW13.0 kmh WSW 13.4 mph21.6 kmh 30.40 in1029.5 mb 0.00 in0.0 mm 0.00 in0.0 mm 0.00 in0.0 mm
10:50 PM 48.7°F9.3°C 42.2°F5.7°C 78% 9.6 mph WSW15.4 kmh WSW 13.4 mph21.6 kmh 30.40 in1029.5 mb 0.00 in0.0 mm 0.00 in0.0 mm 0.00 in0.0 mm
10:55 PM 48.7°F9.3°C 42.2°F5.7°C 78% 9.9 mph WSW15.9 kmh WSW 13.4 mph21.6 kmh 30.40 in1029.5 mb 0.00 in0.0 mm 0.00 in0.0 mm 0.00 in0.0 mm
11:00 PM 48.8°F9.3°C 42.0°F5.6°C 77% 10.7 mph WSW17.2 kmh WSW 13.4 mph21.6 kmh 30.39 in1029.1 mb 0.00 in0.0 mm 0.00 in0.0 mm 0.00 in0.0 mm
11:05 PM 48.9°F9.4°C 42.0°F5.6°C 77% 10.3 mph W16.6 kmh W 11.9 mph19.2 kmh 30.39 in1029.1 mb 0.00 in0.0 mm 0.00 in0.0 mm 0.00 in0.0 mm
11:10 PM 48.9°F9.4°C 41.8°F5.4°C 76% 8.7 mph W14.0 kmh W 13.6 mph21.9 kmh 30.40 in1029.5 mb 0.00 in0.0 mm 0.00 in0.0 mm 0.00 in0.0 mm
11:15 PM 49.2°F9.6°C 41.8°F5.4°C 76% 8.5 mph W13.7 kmh W 10.7 mph17.2 kmh 30.40 in1029.5 mb 0.00 in0.0 mm 0.00 in0.0 mm 0.00 in0.0 mm
11:20 PM 49.3°F9.6°C 41.7°F5.4°C 75% 7.6 mph W12.2 kmh W 12.3 mph19.8 kmh 30.40 in1029.5 mb 0.00 in0.0 mm 0.00 in0.0 mm 0.00 in0.0 mm
11:25 PM 49.4°F9.7°C 41.7°F5.4°C 75% 7.8 mph W12.6 kmh W 13.0 mph20.9 kmh 30.40 in1029.5 mb 0.00 in0.0 mm 0.00 in0.0 mm 0.00 in0.0 mm
11:30 PM 49.5°F9.7°C 41.5°F5.3°C 74% 8.5 mph W13.7 kmh W 13.0 mph20.9 kmh 30.40 in1029.5 mb 0.00 in0.0 mm 0.00 in0.0 mm 0.00 in0.0 mm
11:35 PM 49.6°F9.8°C 41.4°F5.2°C 73% 8.6 mph W13.8 kmh W 11.9 mph19.2 kmh 30.40 in1029.5 mb 0.00 in0.0 mm 0.00 in0.0 mm 0.00 in0.0 mm
11:40 PM 49.5°F9.7°C 41.0°F5.0°C 72% 9.2 mph WSW14.8 kmh WSW 11.9 mph19.2 kmh 30.40 in1029.5 mb 0.00 in0.0 mm 0.00 in0.0 mm 0.00 in0.0 mm
11:45 PM 49.2°F9.6°C 40.5°F4.7°C 72% 9.3 mph WSW15.0 kmh WSW 12.5 mph20.1 kmh 30.40 in1029.5 mb 0.00 in0.0 mm 0.00 in0.0 mm 0.00 in0.0 mm
11:50 PM 48.8°F9.3°C 40.3°F4.6°C 72% 9.6 mph WSW15.4 kmh WSW 11.2 mph18.0 kmh 30.40 in1029.5 mb 0.00 in0.0 mm 0.00 in0.0 mm 0.00 in0.0 mm
11:55 PM 48.5°F9.2°C 40.3°F4.6°C 73% 9.3 mph WSW15.0 kmh WSW 10.3 mph16.6 kmh 30.41 in1029.8 mb 0.00 in0.0 mm 0.00 in0.0 mm 0.00 in0.0 mm